Aeroporto :







RITROVATECI SU...

 
LOGIN :

Iscrizione | Disclaimer

   EN    FR    IT 

 









Sommario :    VFR   VFR Marginale   IFR   IFR Intensivo   IFR Molto Intensivo
Visibilità : 
Base nubi : 
>= 8 km
>= 3000ft
5 / 8 km
1000 / 3000 ft
1500m / 5 km
500 / 1000 ft
800 / 1500m
200 / 500 ft
< 800m
< 200 ft
Simboli :   Temporali  Nebbia  Neve Forte  Precipitazioni Forti  Vento > 20 kt






- Altitudine del aeroporto : 241 ft
- Codice IATA : CEF


KCEF - Westover ARB/Metropolitan

ULTIMO METAR :
  • 151656Z 18003KT 10SM CLR 08/M06 A3010 RMK AO2A SLP201 T00811061

METARs OBSOLETI :
  • 151556Z 21009KT 10SM CLR 07/M06 A3013 RMK AO2A SLP211 T00661064
  • 151456Z 21007KT 10SM CLR 04/M06 A3015 RMK AO2A SLP218 T00401060 58010

TAF TAF KCEF
Valido dal 15 a 11 ore il 16 a 17 ore UTC


151100Z 1511/1617 VRB06KT 9999 FEW250 510104 QNH3013INS
BECMG 1515/1516 26012KT 9999 FEW250 510203 QNH3008INS
BECMG 1521/1522 VRB06KT 9999 FEW030 FEW250 510204 QNH3012INS
BECMG 1605/1606 33012G18KT 9999 SCT030 510107 QNH3024INS
TEMPO 1606/1609 33015G25KT 520009
BECMG 1608/1609 01010G15KT 9999 SKC QNH3038INS
TEMPO 1609/1617 01015G25KT 520004 TX08/1519Z TNM10/1611Z



MetMap, La meteo Aeronautica in un colpo d'occhio ! - Copyright ORBIFLY Dicembre 2007 - Disclaimer

ORBIFLY MET'MAP TEAM :

Programmazione e sviluppo : Alexandra Zaïnal
Concezione e sviluppo : Baudouin d'Aumeries
Co-Programmazione e sviluppo : Marc-Olivier Méhu
Supporto tecnico e logistico : Manuel Goepfert
Aiuto per la traduzione : Arnaldo La Scala

Contatto : metmap@orbifly.com




FONTI E CREDITI :

   NOAA